createdAt,value
2018-05-17T00:01:08.876Z,56.14
2018-05-17T00:03:36.297Z,56.09
2018-05-17T00:06:03.703Z,56.45
2018-05-17T00:08:31.117Z,56.68
2018-05-17T00:10:58.524Z,56.98
2018-05-17T00:13:25.941Z,57.22
2018-05-17T00:15:53.351Z,57.48
2018-05-17T00:18:20.778Z,57.53
2018-05-17T00:20:48.205Z,57.74
2018-05-17T00:23:15.621Z,58.25
2018-05-17T00:25:43.049Z,58.26
2018-05-17T00:28:10.476Z,58.41
2018-05-17T00:30:37.891Z,58.74
2018-05-17T00:33:05.307Z,58.52
2018-05-17T00:35:32.716Z,58.99
2018-05-17T00:38:00.141Z,59.85
2018-05-17T00:40:27.553Z,59.69
2018-05-17T00:42:54.973Z,59.77
2018-05-17T00:45:22.380Z,59.45
2018-05-17T00:47:49.802Z,59.62
2018-05-17T00:50:17.208Z,59.45
2018-05-17T00:52:44.633Z,59.59
2018-05-17T00:55:12.040Z,59.80
2018-05-17T00:57:39.465Z,60.08
2018-05-17T01:00:06.888Z,59.73
2018-05-17T01:02:34.331Z,59.56
2018-05-17T01:05:01.741Z,59.47
2018-05-17T01:07:29.153Z,59.39
2018-05-17T01:09:56.577Z,59.27
2018-05-17T01:12:24.017Z,59.05
2018-05-17T01:14:51.435Z,59.15
2018-05-17T01:17:18.837Z,59.10
2018-05-17T01:19:46.256Z,59.07
2018-05-17T01:22:13.703Z,59.27
2018-05-17T01:24:41.117Z,59.82
2018-05-17T01:27:08.529Z,59.39
2018-05-17T01:29:35.953Z,58.69
2018-05-17T01:32:03.368Z,58.73
2018-05-17T01:34:30.789Z,58.80
2018-05-17T01:37:10.102Z,58.97
2018-05-17T01:39:37.512Z,58.81
2018-05-17T01:42:04.966Z,58.91
2018-05-17T01:44:32.349Z,58.90
2018-05-17T01:46:59.762Z,59.02
2018-05-17T01:49:27.182Z,59.09
2018-05-17T01:51:54.606Z,58.79
2018-05-17T01:54:22.040Z,58.94
2018-05-17T01:56:49.454Z,59.33
2018-05-17T01:59:16.867Z,59.29
2018-05-17T02:01:44.279Z,59.43
2018-05-17T02:04:11.696Z,60.73
2018-05-17T02:06:39.108Z,59.78
2018-05-17T02:09:06.528Z,60.69
2018-05-17T02:11:33.941Z,60.33
2018-05-17T02:14:01.366Z,59.65
2018-05-17T02:16:28.804Z,59.96
2018-05-17T02:18:56.200Z,59.73
2018-05-17T02:21:23.628Z,59.83
2018-05-17T02:23:51.038Z,59.57
2018-05-17T02:26:18.485Z,60.16
2018-05-17T02:28:45.901Z,60.11
2018-05-17T02:31:13.328Z,60.07
2018-05-17T02:33:40.753Z,59.94
2018-05-17T02:36:08.166Z,59.93
2018-05-17T02:38:35.576Z,60.20
2018-05-17T02:41:02.998Z,60.15
2018-05-17T02:43:30.408Z,59.80
2018-05-17T02:45:57.828Z,60.57
2018-05-17T02:48:25.271Z,60.03
2018-05-17T02:50:52.718Z,59.71
2018-05-17T02:53:20.121Z,59.75
2018-05-17T02:55:47.565Z,59.31
2018-05-17T02:58:14.992Z,59.31
2018-05-17T03:00:42.406Z,58.96
2018-05-17T03:03:09.812Z,59.14
2018-05-17T03:05:37.246Z,58.85
2018-05-17T03:08:04.653Z,59.40
2018-05-17T03:10:32.075Z,59.37
2018-05-17T03:12:59.488Z,59.21
2018-05-17T03:15:26.908Z,59.05
2018-05-17T03:17:54.332Z,58.94
2018-05-17T03:20:21.748Z,59.37
2018-05-17T03:22:49.176Z,59.03
2018-05-17T03:25:16.611Z,58.96
2018-05-17T03:27:44.020Z,59.25
2018-05-17T03:30:11.453Z,59.47
2018-05-17T03:32:38.862Z,60.08
2018-05-17T03:35:06.294Z,59.24
2018-05-17T03:37:33.712Z,59.96
2018-05-17T03:40:01.133Z,59.34
2018-05-17T03:42:28.549Z,59.41
2018-05-17T03:44:55.972Z,59.53
2018-05-17T03:47:23.384Z,59.25
2018-05-17T03:49:50.802Z,59.10
2018-05-17T03:52:18.221Z,59.29
2018-05-17T03:54:45.652Z,59.34
2018-05-17T03:57:13.065Z,59.29
2018-05-17T03:59:40.476Z,59.90
2018-05-17T04:02:19.789Z,59.48
2018-05-17T04:04:58.937Z,59.85
2018-05-17T04:07:26.345Z,59.93
2018-05-17T04:09:53.772Z,59.80
2018-05-17T04:12:21.193Z,60.11
2018-05-17T04:14:48.648Z,60.02
2018-05-17T04:17:16.067Z,60.24
2018-05-17T04:19:43.496Z,60.62
2018-05-17T04:22:10.913Z,60.72
2018-05-17T04:24:38.328Z,60.02
2018-05-17T04:27:05.759Z,60.01
2018-05-17T04:29:33.172Z,59.54
2018-05-17T04:32:00.600Z,59.79
2018-05-17T04:34:28.009Z,59.76
2018-05-17T04:36:55.425Z,59.97
2018-05-17T04:39:22.838Z,59.89
2018-05-17T04:41:50.254Z,60.17
2018-05-17T04:44:17.667Z,59.89
2018-05-17T04:46:45.089Z,60.29
2018-05-17T04:49:12.530Z,59.76
2018-05-17T04:51:39.953Z,59.95
2018-05-17T04:54:07.380Z,60.21
2018-05-17T04:56:34.796Z,60.51
2018-05-17T04:59:02.218Z,60.38
2018-05-17T05:01:29.641Z,60.31
2018-05-17T05:03:57.052Z,60.43
2018-05-17T05:06:24.482Z,60.43
2018-05-17T05:08:51.892Z,60.45
2018-05-17T05:11:19.308Z,60.47
2018-05-17T05:13:46.723Z,60.34
2018-05-17T05:16:14.168Z,60.30
2018-05-17T05:18:41.580Z,60.08
2018-05-17T05:21:09.004Z,60.10
2018-05-17T05:23:36.409Z,59.97
2018-05-17T05:26:03.823Z,59.92
2018-05-17T05:28:31.252Z,59.58
2018-05-17T05:30:58.667Z,59.46
2018-05-17T05:33:26.085Z,59.45
2018-05-17T05:35:53.497Z,59.26
2018-05-17T05:38:20.914Z,59.14
2018-05-17T05:40:48.341Z,58.88
2018-05-17T05:43:15.757Z,59.21
2018-05-17T05:45:43.181Z,59.04
2018-05-17T05:48:10.592Z,58.83
2018-05-17T05:50:38.012Z,59.19
2018-05-17T05:53:05.426Z,58.82
2018-05-17T05:55:32.861Z,59.00
2018-05-17T05:58:00.278Z,58.75
2018-05-17T06:00:27.700Z,58.80
2018-05-17T06:02:55.123Z,58.90
2018-05-17T06:05:22.536Z,59.05
2018-05-17T06:07:49.953Z,58.78
2018-05-17T06:10:17.376Z,58.56
2018-05-17T06:12:44.837Z,58.09
2018-05-17T06:15:12.252Z,58.21
2018-05-17T06:17:39.671Z,57.75
2018-05-17T06:20:07.093Z,57.97
2018-05-17T06:22:34.508Z,57.83
2018-05-17T06:25:01.925Z,58.01
2018-05-17T06:27:29.354Z,57.83
2018-05-17T06:29:56.759Z,57.93
2018-05-17T06:32:24.176Z,57.68
2018-05-17T06:34:51.596Z,57.58
2018-05-17T06:37:19.028Z,57.51
2018-05-17T06:39:46.433Z,57.17
2018-05-17T06:44:47.576Z,56.72
2018-05-17T06:47:15.001Z,56.67
2018-05-17T06:49:42.432Z,56.36
2018-05-17T06:52:09.859Z,56.61
2018-05-17T06:54:37.271Z,56.72
2018-05-17T06:57:04.700Z,56.60
2018-05-17T06:59:32.109Z,56.78
2018-05-17T07:01:59.524Z,56.82
2018-05-17T07:04:26.941Z,56.98
2018-05-17T07:06:54.357Z,56.87
2018-05-17T07:09:21.782Z,56.67
2018-05-17T07:11:49.201Z,56.46
2018-05-17T07:14:16.620Z,56.16
2018-05-17T07:16:44.041Z,55.62
2018-05-17T07:19:11.456Z,55.85
2018-05-17T07:21:38.884Z,55.25
2018-05-17T07:24:06.346Z,55.09
2018-05-17T07:26:33.729Z,54.69
2018-05-17T07:29:01.140Z,54.20
2018-05-17T07:31:28.683Z,54.15
2018-05-17T07:33:56.001Z,53.96
2018-05-17T07:36:23.449Z,53.76
2018-05-17T07:38:50.852Z,54.18
2018-05-17T07:41:18.261Z,54.58
2018-05-17T07:43:45.673Z,53.54
2018-05-17T07:46:13.092Z,53.53
2018-05-17T07:48:40.504Z,53.34
2018-05-17T07:51:07.914Z,53.08
2018-05-17T07:53:35.341Z,52.20
2018-05-17T07:56:02.753Z,52.42
2018-05-17T07:58:30.172Z,52.15
2018-05-17T08:00:57.589Z,52.19
2018-05-17T08:03:25.004Z,52.16
2018-05-17T08:05:52.432Z,52.35
2018-05-17T08:08:19.896Z,51.84
2018-05-17T08:10:47.308Z,52.23
2018-05-17T08:13:15.069Z,52.81
2018-05-17T08:15:42.475Z,52.73
2018-05-17T08:18:09.889Z,52.81
2018-05-17T08:20:37.301Z,53.17
2018-05-17T08:23:04.726Z,53.22
2018-05-17T08:25:32.130Z,52.68
2018-05-17T08:27:59.549Z,52.76
2018-05-17T08:30:26.961Z,52.72
2018-05-17T08:32:54.442Z,52.66
2018-05-17T08:35:21.793Z,51.75
2018-05-17T08:37:49.206Z,51.99
2018-05-17T08:40:16.624Z,52.01
2018-05-17T08:42:44.169Z,51.08
2018-05-17T08:45:11.509Z,51.55
2018-05-17T08:47:38.930Z,51.71
2018-05-17T08:50:06.341Z,51.31
2018-05-17T08:52:33.844Z,50.91
2018-05-17T08:55:01.193Z,51.46
2018-05-17T08:57:28.637Z,50.73
2018-05-17T08:59:56.044Z,50.85
2018-05-17T09:02:23.468Z,50.51
2018-05-17T09:04:50.880Z,50.04
2018-05-17T09:07:18.301Z,50.00
2018-05-17T09:09:45.722Z,50.20
2018-05-17T09:12:13.149Z,49.92
2018-05-17T09:14:40.565Z,49.41
2018-05-17T09:17:07.976Z,49.45
2018-05-17T09:19:35.400Z,50.41
2018-05-17T09:22:02.806Z,50.13
2018-05-17T09:24:30.264Z,49.79
2018-05-17T09:26:57.668Z,49.40
2018-05-17T09:29:25.116Z,48.19
2018-05-17T09:31:52.536Z,47.90
2018-05-17T09:34:19.950Z,48.58
2018-05-17T09:36:47.369Z,48.63
2018-05-17T09:39:14.792Z,48.31
2018-05-17T09:41:42.197Z,49.06
2018-05-17T09:44:09.616Z,48.98
2018-05-17T09:46:37.021Z,49.65
2018-05-17T09:49:04.449Z,49.18
2018-05-17T09:51:31.864Z,49.68
2018-05-17T09:53:59.291Z,50.02
2018-05-17T09:56:26.709Z,49.95
2018-05-17T09:58:54.124Z,49.82
2018-05-17T10:01:21.539Z,49.62
2018-05-17T10:03:48.958Z,49.33
2018-05-17T10:06:16.368Z,49.55
2018-05-17T10:08:43.809Z,49.29
2018-05-17T10:11:11.252Z,49.63
2018-05-17T10:13:38.660Z,49.72
2018-05-17T10:16:06.081Z,48.71
2018-05-17T10:18:33.505Z,48.79
2018-05-17T10:21:00.920Z,48.99
2018-05-17T10:23:28.349Z,49.02
2018-05-17T10:25:55.769Z,48.78
2018-05-17T10:28:23.186Z,48.24
2018-05-17T10:30:50.605Z,48.49
2018-05-17T10:33:18.076Z,48.84
2018-05-17T10:35:45.484Z,48.72
2018-05-17T10:38:12.917Z,48.62
2018-05-17T10:40:40.340Z,48.93
2018-05-17T10:43:07.768Z,48.89
2018-05-17T10:45:35.205Z,48.69
2018-05-17T10:48:02.651Z,48.58
2018-05-17T10:50:30.051Z,48.56
2018-05-17T10:52:57.478Z,48.12
2018-05-17T10:55:24.884Z,47.53
2018-05-17T10:57:52.296Z,50.60
2018-05-17T11:00:19.732Z,48.22
2018-05-17T11:02:47.184Z,47.64
2018-05-17T11:05:14.637Z,46.93
2018-05-17T11:07:42.042Z,49.23
2018-05-17T11:10:09.461Z,46.36
2018-05-17T11:12:36.879Z,46.80
2018-05-17T11:15:04.296Z,46.51
2018-05-17T11:17:31.711Z,45.76
2018-05-17T11:19:59.142Z,45.50
2018-05-17T11:22:26.548Z,46.01
2018-05-17T11:24:53.970Z,45.08
2018-05-17T11:27:21.372Z,45.85
2018-05-17T11:29:48.792Z,45.83
2018-05-17T11:32:16.212Z,45.90
2018-05-17T11:34:43.633Z,45.56
2018-05-17T11:37:11.061Z,45.73
2018-05-17T11:39:38.484Z,45.88
2018-05-17T11:42:05.901Z,46.18
2018-05-17T11:44:33.324Z,46.86
2018-05-17T11:47:00.744Z,47.80
2018-05-17T11:49:28.176Z,47.97
2018-05-17T11:51:55.593Z,48.23
2018-05-17T11:54:23.005Z,48.30
2018-05-17T11:56:50.437Z,48.25
2018-05-17T11:59:17.855Z,48.37
2018-05-17T12:01:45.268Z,49.16
2018-05-17T12:04:12.700Z,49.11
2018-05-17T12:06:40.112Z,49.49
2018-05-17T12:09:07.563Z,49.58
2018-05-17T12:11:34.960Z,49.88
2018-05-17T12:14:02.376Z,50.30
2018-05-17T12:16:29.795Z,50.15
2018-05-17T12:18:57.239Z,50.16
2018-05-17T12:21:24.638Z,50.92
2018-05-17T12:23:52.061Z,51.54
2018-05-17T12:26:19.484Z,51.02
2018-05-17T12:28:46.891Z,51.24
2018-05-17T12:31:14.320Z,51.68
2018-05-17T12:33:41.738Z,52.01
2018-05-17T12:36:09.165Z,52.17
2018-05-17T12:38:36.583Z,52.28
2018-05-17T12:41:04.003Z,52.68
2018-05-17T12:43:31.424Z,53.04
2018-05-17T12:45:58.908Z,52.73
2018-05-17T12:48:26.253Z,52.54
2018-05-17T12:50:53.685Z,52.73
2018-05-17T12:53:21.093Z,52.74
2018-05-17T12:55:48.512Z,53.12
2018-05-17T12:58:15.921Z,52.99
2018-05-17T13:00:43.333Z,53.37
2018-05-17T13:03:10.757Z,53.67
2018-05-17T13:05:38.169Z,54.00
2018-05-17T13:08:05.585Z,54.59
2018-05-17T13:10:33.017Z,54.27
2018-05-17T13:13:00.525Z,54.33
2018-05-17T13:15:27.861Z,54.35
2018-05-17T13:17:55.280Z,54.47
2018-05-17T13:20:22.721Z,54.54
2018-05-17T13:22:50.137Z,54.81
2018-05-17T13:25:17.559Z,55.06
2018-05-17T13:27:44.974Z,54.87
2018-05-17T13:30:12.399Z,55.23
2018-05-17T13:32:39.801Z,54.58
2018-05-17T13:35:07.228Z,55.19
2018-05-17T13:37:34.648Z,55.51
2018-05-17T13:40:02.060Z,55.97
2018-05-17T13:42:29.464Z,55.75
2018-05-17T13:44:56.891Z,56.08
2018-05-17T13:47:24.308Z,55.89
2018-05-17T13:49:51.731Z,55.76
2018-05-17T13:52:19.151Z,55.92
2018-05-17T13:54:46.576Z,56.22
2018-05-17T13:57:13.980Z,56.12
2018-05-17T13:59:41.395Z,55.42
2018-05-17T14:02:08.813Z,55.66
2018-05-17T14:04:36.224Z,55.36
2018-05-17T14:07:03.648Z,55.66
2018-05-17T14:09:31.060Z,55.91
2018-05-17T14:11:58.489Z,56.14
2018-05-17T14:14:25.901Z,55.85
2018-05-17T14:16:53.323Z,56.29
2018-05-17T14:19:20.747Z,56.47
2018-05-17T14:21:48.169Z,56.12
2018-05-17T14:24:15.577Z,56.48
2018-05-17T14:26:43.001Z,56.81
2018-05-17T14:29:10.409Z,56.75
2018-05-17T14:31:37.865Z,57.08
2018-05-17T14:34:05.249Z,57.13
2018-05-17T14:36:32.668Z,57.68
2018-05-17T14:39:00.089Z,57.47
2018-05-17T14:41:27.508Z,57.34
2018-05-17T14:43:54.916Z,57.53
2018-05-17T14:46:22.332Z,57.41
2018-05-17T14:48:49.740Z,57.53
2018-05-17T14:51:17.166Z,57.64
2018-05-17T14:53:44.589Z,57.48
2018-05-17T14:56:12.004Z,57.40
2018-05-17T14:58:39.448Z,57.66
2018-05-17T15:01:06.878Z,57.63
2018-05-17T15:03:34.280Z,57.73
2018-05-17T15:06:01.704Z,58.15
2018-05-17T15:08:29.241Z,58.24
2018-05-17T15:10:56.549Z,58.21
2018-05-17T15:13:23.959Z,58.62
2018-05-17T15:15:51.392Z,58.82
2018-05-17T15:18:18.813Z,59.12
2018-05-17T15:20:46.226Z,59.00
2018-05-17T15:23:13.641Z,58.95
2018-05-17T15:25:41.058Z,58.76
2018-05-17T15:28:08.474Z,59.23
2018-05-17T15:30:35.883Z,59.31
2018-05-17T15:33:03.408Z,59.15
2018-05-17T15:35:30.815Z,59.36
2018-05-17T15:37:58.314Z,59.58
2018-05-17T15:40:25.726Z,59.69
2018-05-17T15:42:53.144Z,59.40
2018-05-17T15:45:20.577Z,59.37
2018-05-17T15:47:48.140Z,59.42
2018-05-17T15:50:15.595Z,59.63
2018-05-17T15:52:43.017Z,59.76
2018-05-17T15:55:10.424Z,59.73
2018-05-17T15:57:37.845Z,59.75
2018-05-17T16:00:05.258Z,59.61
2018-05-17T16:02:32.701Z,59.25
2018-05-17T16:05:00.108Z,59.29
2018-05-17T16:07:27.536Z,59.54
2018-05-17T16:09:54.972Z,59.66
2018-05-17T16:12:22.384Z,59.85
2018-05-17T16:14:49.819Z,59.65
2018-05-17T16:17:17.220Z,59.65
2018-05-17T16:19:44.632Z,60.02
2018-05-17T16:22:12.044Z,60.18
2018-05-17T16:24:39.460Z,60.64
2018-05-17T16:27:06.880Z,60.67
2018-05-17T16:29:34.292Z,60.62
2018-05-17T16:32:01.707Z,60.54
2018-05-17T16:34:29.112Z,60.82
2018-05-17T16:36:56.537Z,60.37
2018-05-17T16:39:23.945Z,60.17
2018-05-17T16:41:51.364Z,60.08
2018-05-17T16:44:18.783Z,59.97
2018-05-17T16:46:46.200Z,60.00
2018-05-17T16:49:13.612Z,59.98
2018-05-17T16:51:41.041Z,59.98
2018-05-17T16:54:08.510Z,59.84
2018-05-17T16:56:35.860Z,59.73
2018-05-17T16:59:03.280Z,59.66
2018-05-17T17:01:30.691Z,59.57
2018-05-17T17:03:58.112Z,59.70
2018-05-17T17:06:25.516Z,59.88
2018-05-17T17:08:52.949Z,60.16
2018-05-17T17:11:20.362Z,60.66
2018-05-17T17:13:47.803Z,60.79
2018-05-17T17:16:15.361Z,60.99
2018-05-17T17:18:42.913Z,61.10
2018-05-17T17:21:10.355Z,61.39
2018-05-17T17:23:37.800Z,61.51
2018-05-17T17:26:05.202Z,61.46
2018-05-17T17:28:33.717Z,61.79
2018-05-17T17:31:01.427Z,62.06
2018-05-17T17:33:28.847Z,62.36
2018-05-17T17:35:56.313Z,62.67
2018-05-17T17:38:23.834Z,62.74
2018-05-17T17:40:51.240Z,62.64
2018-05-17T17:43:18.828Z,62.74
2018-05-17T17:45:46.228Z,63.08
2018-05-17T17:48:13.656Z,63.28
2018-05-17T17:50:41.068Z,63.37
2018-05-17T17:53:08.675Z,63.22
2018-05-17T17:55:36.089Z,63.53
2018-05-17T17:58:03.506Z,63.78
2018-05-17T18:00:30.924Z,64.15
2018-05-17T18:02:58.348Z,64.16
2018-05-17T18:05:25.764Z,64.03
2018-05-17T18:07:53.175Z,64.21
2018-05-17T18:10:20.587Z,64.63
2018-05-17T18:12:47.999Z,64.62
2018-05-17T18:15:15.416Z,64.71
2018-05-17T18:17:43.649Z,64.63
2018-05-17T18:20:11.066Z,64.81
2018-05-17T18:22:38.497Z,64.75
2018-05-17T18:25:05.909Z,64.78
2018-05-17T18:27:33.328Z,64.95
2018-05-17T18:30:00.740Z,65.00
2018-05-17T18:32:28.169Z,64.98
2018-05-17T18:34:55.571Z,65.04
2018-05-17T18:37:22.986Z,65.40
2018-05-17T18:39:50.431Z,65.37
2018-05-17T18:42:17.844Z,65.22
2018-05-17T18:44:45.326Z,65.17
2018-05-17T18:47:12.683Z,65.27
2018-05-17T18:49:40.107Z,64.96
2018-05-17T18:52:07.540Z,64.95
2018-05-17T18:54:35.008Z,65.06
2018-05-17T18:57:02.433Z,65.26
2018-05-17T18:59:29.802Z,65.37
2018-05-17T19:01:57.333Z,65.35
2018-05-17T19:04:24.642Z,65.26
2018-05-17T19:06:52.059Z,65.30
2018-05-17T19:09:19.553Z,65.29
2018-05-17T19:11:46.964Z,65.33
2018-05-17T19:14:14.441Z,65.47
2018-05-17T19:16:41.880Z,65.20
2018-05-17T19:19:09.312Z,65.27
2018-05-17T19:21:38.777Z,65.14
2018-05-17T19:24:06.360Z,65.14
2018-05-17T19:26:33.801Z,65.04
2018-05-17T19:29:01.650Z,65.18
2018-05-17T19:31:29.243Z,65.40
2018-05-17T19:33:56.585Z,70.07
2018-05-17T19:36:25.144Z,68.46
2018-05-17T19:38:52.576Z,67.38
2018-05-17T19:41:19.996Z,62.53
2018-05-17T19:43:47.403Z,63.24
2018-05-17T19:46:14.813Z,62.97
2018-05-17T19:48:42.277Z,62.96
2018-05-17T19:51:09.659Z,63.32
2018-05-17T19:53:37.076Z,63.52
2018-05-17T19:56:04.498Z,63.74
2018-05-17T19:58:31.916Z,63.69
2018-05-17T20:00:59.328Z,63.97
2018-05-17T20:03:26.752Z,64.24
2018-05-17T20:05:54.160Z,64.28
2018-05-17T20:08:21.595Z,64.65
2018-05-17T20:10:49.017Z,64.96
2018-05-17T20:13:16.425Z,64.99
2018-05-17T20:15:43.847Z,65.13
2018-05-17T20:18:11.259Z,65.05
2018-05-17T20:20:38.680Z,65.25
2018-05-17T20:23:06.096Z,65.09
2018-05-17T20:25:33.527Z,65.09
2018-05-17T20:28:00.940Z,65.26
2018-05-17T20:30:28.385Z,65.42
2018-05-17T20:32:55.792Z,65.54
2018-05-17T20:35:23.209Z,65.63
2018-05-17T20:37:50.628Z,65.83
2018-05-17T20:40:18.054Z,65.78
2018-05-17T20:42:45.464Z,65.86
2018-05-17T20:45:12.887Z,65.96
2018-05-17T20:47:40.300Z,65.92
2018-05-17T20:50:07.727Z,66.06
2018-05-17T20:52:35.135Z,66.41
2018-05-17T20:55:02.556Z,66.86
2018-05-17T20:57:29.971Z,66.88
2018-05-17T20:59:57.399Z,66.23
2018-05-17T21:02:24.817Z,66.25
2018-05-17T21:04:52.243Z,65.74
2018-05-17T21:07:19.660Z,65.61
2018-05-17T21:09:47.077Z,65.23
2018-05-17T21:12:14.492Z,65.64
2018-05-17T21:14:41.912Z,65.05
2018-05-17T21:17:09.363Z,65.08
2018-05-17T21:19:36.779Z,64.86
2018-05-17T21:22:04.187Z,65.03
2018-05-17T21:24:31.605Z,64.76
2018-05-17T21:26:59.025Z,64.88
2018-05-17T21:29:26.448Z,64.72
2018-05-17T21:31:53.869Z,64.47
2018-05-17T21:34:21.284Z,64.63
2018-05-17T21:36:48.708Z,64.07
2018-05-17T21:39:16.125Z,64.10
2018-05-17T21:41:43.548Z,64.02
2018-05-17T21:44:10.993Z,64.21
2018-05-17T21:46:38.419Z,64.32
2018-05-17T21:49:05.833Z,64.17
2018-05-17T21:51:33.251Z,64.08
2018-05-17T21:54:00.664Z,64.05
2018-05-17T21:56:28.089Z,63.87
2018-05-17T21:58:55.497Z,64.27
2018-05-17T22:01:22.918Z,64.18
2018-05-17T22:03:50.331Z,63.90
2018-05-17T22:06:17.745Z,63.70
2018-05-17T22:08:45.149Z,63.83
2018-05-17T22:11:12.565Z,64.06
2018-05-17T22:13:39.976Z,63.62
2018-05-17T22:16:07.400Z,64.07
2018-05-17T22:18:34.819Z,63.74
2018-05-17T22:21:02.253Z,64.15
2018-05-17T22:23:29.660Z,63.80
2018-05-17T22:25:57.076Z,63.82
2018-05-17T22:28:24.490Z,63.47
2018-05-17T22:30:51.909Z,63.33
2018-05-17T22:33:19.344Z,62.99
2018-05-17T22:35:46.859Z,63.19
2018-05-17T22:38:14.211Z,63.02
2018-05-17T22:40:41.624Z,62.98
2018-05-17T22:43:09.033Z,63.01
2018-05-17T22:45:36.451Z,62.98
2018-05-17T22:48:03.864Z,62.84
2018-05-17T22:50:31.282Z,62.77
2018-05-17T22:52:58.732Z,62.89
2018-05-17T22:55:26.153Z,62.54
2018-05-17T22:58:05.415Z,62.52
2018-05-17T23:00:32.836Z,62.39
2018-05-17T23:03:00.266Z,62.56
2018-05-17T23:05:27.677Z,62.59
2018-05-17T23:07:55.087Z,62.32
2018-05-17T23:10:22.508Z,62.21
2018-05-17T23:12:49.920Z,62.14
2018-05-17T23:15:17.340Z,62.84
2018-05-17T23:17:44.749Z,62.56
2018-05-17T23:20:12.174Z,62.76
2018-05-17T23:22:39.580Z,63.24
2018-05-17T23:25:08.901Z,62.33
2018-05-17T23:27:36.313Z,62.56
2018-05-17T23:30:03.748Z,62.51
2018-05-17T23:32:31.172Z,62.54
2018-05-17T23:34:58.589Z,63.23
2018-05-17T23:37:26.008Z,62.43
2018-05-17T23:39:53.421Z,62.62
2018-05-17T23:42:20.831Z,63.09
2018-05-17T23:44:48.235Z,63.29
2018-05-17T23:47:15.662Z,63.04
2018-05-17T23:49:43.070Z,63.65
2018-05-17T23:52:10.525Z,63.16
2018-05-17T23:54:37.922Z,63.17
2018-05-17T23:57:05.347Z,63.59
2018-05-17T23:59:32.759Z,63.57
